createdAt,value
2022-09-03T00:00:15.397Z,53.46
2022-09-03T00:02:45.836Z,53.15
2022-09-03T00:05:19.012Z,53.55
2022-09-03T00:08:09.811Z,53.74
2022-09-03T00:10:44.890Z,53.59
2022-09-03T00:13:16.378Z,53.46
2022-09-03T00:15:43.670Z,53.66
2022-09-03T00:18:14.234Z,53.44
2022-09-03T00:20:41.488Z,53.19
2022-09-03T00:23:11.077Z,53.27
2022-09-03T00:25:40.755Z,53.05
2022-09-03T00:28:13.156Z,53.17
2022-09-03T00:30:41.817Z,53.51
2022-09-03T00:33:12.188Z,54.45
2022-09-03T00:35:43.520Z,54.10
2022-09-03T00:38:10.805Z,53.84
2022-09-03T00:40:46.867Z,54.08
2022-09-03T00:43:32.285Z,54.16
2022-09-03T00:46:11.504Z,53.97
2022-09-03T00:49:04.763Z,53.96
2022-09-03T00:51:55.978Z,54.06
2022-09-03T00:54:43.477Z,53.68
2022-09-03T00:57:30.679Z,53.96
2022-09-03T00:59:59.023Z,53.85
2022-09-03T01:02:34.233Z,53.90
2022-09-03T01:05:10.634Z,54.18
2022-09-03T01:07:43.683Z,54.48
2022-09-03T01:10:11.515Z,55.64
2022-09-03T01:12:47.560Z,55.11
2022-09-03T01:15:14.715Z,54.65
2022-09-03T01:17:47.845Z,54.57
2022-09-03T01:20:14.973Z,55.02
2022-09-03T01:22:51.106Z,56.06
2022-09-03T01:25:37.151Z,55.72
2022-09-03T01:28:22.725Z,55.40
2022-09-03T01:30:57.146Z,54.66
2022-09-03T01:33:31.620Z,54.34
2022-09-03T01:35:58.802Z,54.86
2022-09-03T01:38:44.789Z,55.45
2022-09-03T01:41:39.480Z,55.20
2022-09-03T01:44:13.024Z,55.06
2022-09-03T01:46:41.178Z,55.42
2022-09-03T01:49:11.523Z,55.41
2022-09-03T01:51:38.935Z,55.69
2022-09-03T01:54:21.798Z,56.10
2022-09-03T01:56:51.942Z,56.95
2022-09-03T01:59:21.928Z,58.17
2022-09-03T02:01:58.832Z,58.49
2022-09-03T02:04:26.773Z,58.98
2022-09-03T02:06:54.787Z,59.62
2022-09-03T02:09:21.990Z,59.53
2022-09-03T02:12:03.599Z,59.38
2022-09-03T02:14:31.080Z,58.82
2022-09-03T02:17:00.525Z,59.51
2022-09-03T02:19:28.230Z,59.17
2022-09-03T02:21:56.385Z,59.79
2022-09-03T02:24:28.243Z,59.54
2022-09-03T02:26:55.861Z,60.17
2022-09-03T02:29:23.931Z,60.36
2022-09-03T02:31:51.442Z,59.59
2022-09-03T02:34:18.608Z,60.16
2022-09-03T02:36:47.552Z,59.49
2022-09-03T02:39:15.588Z,58.80
2022-09-03T02:41:43.954Z,58.71
2022-09-03T02:44:17.853Z,59.33
2022-09-03T02:46:48.657Z,59.34
2022-09-03T02:49:16.373Z,58.64
2022-09-03T02:51:44.095Z,58.56
2022-09-03T02:54:12.358Z,58.99
2022-09-03T02:56:39.591Z,60.79
2022-09-03T02:59:08.243Z,62.06
2022-09-03T03:01:35.778Z,63.28
2022-09-03T03:04:03.202Z,63.76
2022-09-03T03:06:30.429Z,62.91
2022-09-03T03:08:57.778Z,63.09
2022-09-03T03:11:27.333Z,63.01
2022-09-03T03:13:54.544Z,63.13
2022-09-03T03:16:21.791Z,62.80
2022-09-03T03:18:49.106Z,62.51
2022-09-03T03:21:16.981Z,63.28
2022-09-03T03:23:44.729Z,62.92
2022-09-03T03:26:13.680Z,62.65
2022-09-03T03:28:42.489Z,63.05
2022-09-03T03:31:11.649Z,63.06
2022-09-03T03:33:39.561Z,63.04
2022-09-03T03:36:07.096Z,63.78
2022-09-03T03:38:34.616Z,64.01
2022-09-03T03:41:15.808Z,64.38
2022-09-03T03:43:43.255Z,63.15
2022-09-03T03:46:13.299Z,63.79
2022-09-03T03:48:40.611Z,63.01
2022-09-03T03:51:09.028Z,63.17
2022-09-03T03:53:37.832Z,62.73
2022-09-03T03:56:06.564Z,62.80
2022-09-03T03:58:34.189Z,61.75
2022-09-03T04:01:09.057Z,61.42
2022-09-03T04:03:36.401Z,61.37
2022-09-03T04:06:04.793Z,61.66
2022-09-03T04:08:34.925Z,62.21
2022-09-03T04:11:03.045Z,61.77
2022-09-03T04:13:34.312Z,62.18
2022-09-03T04:16:05.660Z,62.74
2022-09-03T04:18:33.960Z,62.73
2022-09-03T04:21:04.243Z,62.37
2022-09-03T04:23:32.381Z,62.79
2022-09-03T04:25:59.626Z,62.95
2022-09-03T04:28:27.317Z,62.94
2022-09-03T04:30:54.959Z,62.98
2022-09-03T04:33:24.931Z,63.63
2022-09-03T04:35:52.135Z,63.35
2022-09-03T04:38:19.362Z,63.35
2022-09-03T04:40:52.305Z,63.75
2022-09-03T04:43:19.575Z,64.26
2022-09-03T04:45:46.904Z,64.03
2022-09-03T04:48:14.349Z,64.34
2022-09-03T04:50:42.095Z,64.31
2022-09-03T04:53:09.329Z,64.87
2022-09-03T04:55:37.454Z,65.26
2022-09-03T04:58:04.993Z,64.74
2022-09-03T05:00:32.183Z,64.59
2022-09-03T05:03:04.876Z,64.21
2022-09-03T05:05:33.769Z,64.64
2022-09-03T05:08:04.158Z,64.92
2022-09-03T05:10:31.556Z,64.91
2022-09-03T05:12:59.776Z,64.66
2022-09-03T05:15:27.425Z,64.37
2022-09-03T05:17:58.628Z,64.34
2022-09-03T05:20:26.353Z,64.07
2022-09-03T05:22:53.602Z,64.15
2022-09-03T05:25:21.080Z,63.62
2022-09-03T05:27:48.614Z,64.15
2022-09-03T05:30:15.999Z,64.45
2022-09-03T05:32:43.216Z,64.50
2022-09-03T05:35:11.016Z,64.30
2022-09-03T05:37:38.259Z,63.81
2022-09-03T05:40:06.115Z,62.95
2022-09-03T05:42:37.370Z,62.33
2022-09-03T05:45:11.088Z,63.50
2022-09-03T05:47:39.601Z,63.02
2022-09-03T05:50:08.747Z,63.28
2022-09-03T05:52:36.221Z,63.06
2022-09-03T05:55:04.347Z,61.40
2022-09-03T05:57:31.983Z,60.88
2022-09-03T06:00:00.277Z,60.52
2022-09-03T06:02:27.549Z,60.67
2022-09-03T06:04:56.021Z,60.96
2022-09-03T06:07:23.213Z,61.46
2022-09-03T06:09:50.490Z,61.45
2022-09-03T06:12:17.708Z,61.10
2022-09-03T06:14:44.923Z,61.04
2022-09-03T06:17:13.095Z,60.83
2022-09-03T06:19:42.309Z,60.72
2022-09-03T06:22:09.565Z,61.20
2022-09-03T06:24:36.873Z,61.62
2022-09-03T06:27:04.163Z,61.70
2022-09-03T06:29:31.546Z,61.41
2022-09-03T06:31:59.486Z,61.94
2022-09-03T06:34:27.309Z,62.38
2022-09-03T06:36:54.797Z,62.75
2022-09-03T06:39:22.424Z,63.85
2022-09-03T06:41:51.863Z,64.99
2022-09-03T06:44:26.192Z,65.19
2022-09-03T06:46:53.571Z,65.14
2022-09-03T06:49:20.912Z,64.73
2022-09-03T06:51:48.123Z,63.94
2022-09-03T06:54:16.090Z,63.18
2022-09-03T06:56:43.307Z,61.72
2022-09-03T06:59:14.257Z,59.09
2022-09-03T07:01:43.786Z,59.37
2022-09-03T07:04:12.932Z,59.72
2022-09-03T07:06:40.889Z,58.42
2022-09-03T07:09:08.685Z,59.46
2022-09-03T07:11:36.702Z,58.56
2022-09-03T07:14:04.531Z,57.04
2022-09-03T07:16:36.215Z,54.30
2022-09-03T07:19:04.726Z,54.33
2022-09-03T07:21:34.108Z,52.89
2022-09-03T07:24:03.112Z,53.29
2022-09-03T07:26:31.121Z,53.86
2022-09-03T07:28:58.520Z,52.45
2022-09-03T07:31:27.662Z,52.88
2022-09-03T07:33:58.888Z,51.08
2022-09-03T07:36:27.844Z,51.84
2022-09-03T07:38:56.006Z,51.90
2022-09-03T07:41:28.362Z,52.30
2022-09-03T07:43:57.201Z,52.66
2022-09-03T07:46:25.685Z,52.59
2022-09-03T07:48:58.381Z,52.56
2022-09-03T07:51:27.818Z,52.49
2022-09-03T07:53:56.224Z,52.91
2022-09-03T07:56:23.804Z,53.43
2022-09-03T07:58:51.089Z,53.17
2022-09-03T08:01:19.613Z,53.10
2022-09-03T08:03:51.942Z,53.93
2022-09-03T08:06:20.563Z,53.59
2022-09-03T08:08:49.103Z,52.49
2022-09-03T08:11:17.360Z,52.57
2022-09-03T08:13:45.820Z,52.73
2022-09-03T08:16:13.616Z,51.69
2022-09-03T08:18:40.831Z,52.56
2022-09-03T08:21:14.929Z,51.09
2022-09-03T08:23:46.369Z,50.79
2022-09-03T08:26:14.968Z,49.58
2022-09-03T08:28:43.232Z,49.73
2022-09-03T08:31:12.052Z,48.26
2022-09-03T08:33:43.843Z,47.69
2022-09-03T08:36:12.701Z,46.94
2022-09-03T08:38:40.933Z,46.63
2022-09-03T08:41:18.199Z,44.56
2022-09-03T08:44:04.789Z,45.96
2022-09-03T08:46:38.107Z,45.64
2022-09-03T08:49:07.079Z,45.15
2022-09-03T08:51:54.704Z,44.48
2022-09-03T08:54:24.397Z,43.80
2022-09-03T08:56:52.685Z,43.88
2022-09-03T08:59:22.157Z,43.35
2022-09-03T09:02:00.375Z,42.19
2022-09-03T09:04:48.073Z,40.60
2022-09-03T09:07:19.693Z,39.19
2022-09-03T09:09:53.012Z,39.11
2022-09-03T09:12:44.222Z,39.29
2022-09-03T09:15:19.499Z,37.23
2022-09-03T09:18:05.442Z,36.75
2022-09-03T09:20:38.658Z,38.23
2022-09-03T09:23:06.974Z,40.11
2022-09-03T09:25:39.791Z,41.86
2022-09-03T09:28:09.778Z,43.43
2022-09-03T09:30:37.731Z,44.00
2022-09-03T09:33:05.248Z,44.52
2022-09-03T09:35:32.443Z,44.50
2022-09-03T09:38:00.401Z,44.41
2022-09-03T09:40:41.448Z,45.18
2022-09-03T09:43:16.781Z,45.95
2022-09-03T09:45:45.144Z,46.23
2022-09-03T09:48:34.357Z,46.55
2022-09-03T09:51:12.055Z,46.27
2022-09-03T09:53:40.292Z,45.48
2022-09-03T09:56:08.128Z,44.61
2022-09-03T09:58:35.915Z,44.76
2022-09-03T10:01:15.567Z,43.81
2022-09-03T10:03:51.026Z,43.93
2022-09-03T10:06:36.686Z,44.32
2022-09-03T10:09:31.455Z,43.36
2022-09-03T10:11:59.001Z,43.87
2022-09-03T10:14:32.659Z,44.39
2022-09-03T10:17:05.132Z,45.75
2022-09-03T10:19:43.222Z,45.46
2022-09-03T10:22:17.911Z,45.73
2022-09-03T10:25:03.315Z,45.29
2022-09-03T10:27:32.009Z,44.24
2022-09-03T10:30:00.682Z,43.81
2022-09-03T10:33:00.056Z,44.76
2022-09-03T10:35:42.512Z,43.46
2022-09-03T10:38:17.330Z,44.09
2022-09-03T10:40:50.324Z,46.42
2022-09-03T10:43:35.996Z,46.64
2022-09-03T10:46:24.378Z,46.52
2022-09-03T10:49:10.604Z,46.23
2022-09-03T10:51:45.144Z,46.21
2022-09-03T10:54:31.183Z,46.50
2022-09-03T10:57:21.115Z,46.13
2022-09-03T11:00:14.704Z,45.73
2022-09-03T11:02:59.978Z,46.02
2022-09-03T11:05:46.112Z,47.60
2022-09-03T11:08:21.972Z,45.87
2022-09-03T11:10:53.067Z,46.41
2022-09-03T11:13:39.738Z,45.33
2022-09-03T11:16:14.241Z,44.72
2022-09-03T11:18:47.444Z,45.68
2022-09-03T11:21:16.654Z,46.12
2022-09-03T11:23:45.825Z,45.18
2022-09-03T11:26:15.664Z,46.04
2022-09-03T11:28:56.817Z,46.79
2022-09-03T11:31:25.254Z,46.84
2022-09-03T11:34:01.686Z,46.82
2022-09-03T11:36:31.368Z,46.06
2022-09-03T11:39:00.422Z,46.76
2022-09-03T11:41:28.908Z,45.93
2022-09-03T11:43:57.010Z,45.08
2022-09-03T11:46:26.362Z,45.26
2022-09-03T11:48:58.180Z,45.94
2022-09-03T11:51:25.364Z,45.48
2022-09-03T11:54:04.872Z,46.36
2022-09-03T11:56:33.237Z,45.97
2022-09-03T11:59:00.451Z,46.00
2022-09-03T12:01:28.430Z,45.52
2022-09-03T12:04:03.553Z,45.56
2022-09-03T12:06:30.714Z,45.16
2022-09-03T12:09:16.094Z,45.75
2022-09-03T12:11:55.712Z,45.52
2022-09-03T12:14:41.718Z,44.69
2022-09-03T12:17:24.150Z,45.80
2022-09-03T12:19:55.297Z,46.93
2022-09-03T12:22:23.825Z,46.08
2022-09-03T12:24:51.165Z,44.87
2022-09-03T12:27:24.309Z,44.32
2022-09-03T12:30:00.155Z,44.59
2022-09-03T12:32:38.272Z,45.29
2022-09-03T12:35:58.391Z,45.98
2022-09-03T12:38:06.573Z,44.36
2022-09-03T12:40:35.620Z,44.15
2022-09-03T12:43:47.602Z,45.27
2022-09-03T12:46:16.139Z,45.21
2022-09-03T12:51:53.669Z,44.94
2022-09-03T12:54:23.707Z,44.45
2022-09-03T12:56:56.633Z,45.19
2022-09-03T12:59:26.204Z,45.78
2022-09-03T13:01:55.918Z,44.78
2022-09-03T13:04:28.261Z,45.40
2022-09-03T13:06:56.770Z,45.17
2022-09-03T13:09:26.436Z,45.85
2022-09-03T13:11:55.531Z,45.65
2022-09-03T13:14:23.052Z,45.36
2022-09-03T13:17:01.584Z,44.29
2022-09-03T13:19:48.328Z,45.78
2022-09-03T13:22:34.291Z,46.79
2022-09-03T13:25:25.986Z,47.14
2022-09-03T13:28:32.423Z,47.13
2022-09-03T13:31:23.025Z,47.18
2022-09-03T13:34:13.145Z,46.94
2022-09-03T13:36:51.880Z,46.76
2022-09-03T13:39:25.088Z,46.57
2022-09-03T13:42:13.557Z,46.31
2022-09-03T13:44:53.043Z,46.46
2022-09-03T13:47:20.293Z,46.27
2022-09-03T13:50:06.170Z,46.06
2022-09-03T13:52:33.321Z,46.09
2022-09-03T13:55:03.911Z,46.15
2022-09-03T13:57:46.705Z,46.34
2022-09-03T14:00:22.043Z,45.93
2022-09-03T14:03:16.213Z,45.97
2022-09-03T14:06:02.096Z,46.09
2022-09-03T14:08:58.682Z,46.45
2022-09-03T14:11:45.026Z,46.91
2022-09-03T14:14:15.507Z,46.55
2022-09-03T14:16:50.071Z,46.55
2022-09-03T14:19:27.651Z,46.84
2022-09-03T14:22:05.458Z,47.26
2022-09-03T14:24:51.448Z,47.69
2022-09-03T14:27:26.382Z,47.88
2022-09-03T14:30:06.433Z,47.41
2022-09-03T14:32:48.185Z,47.89
2022-09-03T14:35:27.402Z,47.27
2022-09-03T14:38:27.432Z,47.87
2022-09-03T14:41:20.750Z,49.11
2022-09-03T14:43:57.488Z,49.60
2022-09-03T14:46:33.586Z,50.11
2022-09-03T14:49:16.291Z,50.30
2022-09-03T14:52:03.473Z,50.40
2022-09-03T14:54:49.103Z,51.33
2022-09-03T14:57:22.068Z,51.50
2022-09-03T14:59:49.336Z,51.49
2022-09-03T15:02:34.894Z,52.16
2022-09-03T15:05:20.949Z,52.86
2022-09-03T15:07:50.897Z,53.07
2022-09-03T15:10:31.505Z,53.49
2022-09-03T15:12:59.652Z,53.72
2022-09-03T15:15:32.334Z,53.43
2022-09-03T15:18:19.097Z,53.54
2022-09-03T15:20:50.118Z,53.42
2022-09-03T15:23:20.517Z,53.56
2022-09-03T15:26:06.350Z,53.62
2022-09-03T15:28:45.529Z,53.43
2022-09-03T15:31:24.797Z,54.05
2022-09-03T15:34:01.064Z,54.57
2022-09-03T15:36:35.227Z,53.90
2022-09-03T15:39:06.446Z,54.22
2022-09-03T15:41:33.713Z,54.55
2022-09-03T15:44:02.052Z,54.79
2022-09-03T15:46:37.440Z,54.93
2022-09-03T15:49:13.033Z,55.12
2022-09-03T15:51:50.060Z,54.84
2022-09-03T15:54:27.092Z,54.95
2022-09-03T15:57:17.735Z,54.79
2022-09-03T15:59:47.873Z,55.36
2022-09-03T16:02:20.225Z,54.90
2022-09-03T16:05:07.945Z,55.04
2022-09-03T16:07:37.855Z,55.42
2022-09-03T16:10:24.788Z,54.91
2022-09-03T16:13:01.989Z,54.63
2022-09-03T16:15:32.988Z,54.77
2022-09-03T16:18:23.374Z,55.17
2022-09-03T16:21:01.202Z,55.41
2022-09-03T16:23:32.617Z,55.81
2022-09-03T16:26:20.063Z,55.81
2022-09-03T16:28:58.554Z,55.41
2022-09-03T16:31:40.022Z,55.30
2022-09-03T16:34:21.886Z,55.37
2022-09-03T16:36:49.243Z,55.61
2022-09-03T16:39:16.575Z,54.67
2022-09-03T16:41:58.127Z,54.82
2022-09-03T16:44:31.381Z,54.64
2022-09-03T16:47:04.163Z,54.84
2022-09-03T16:49:50.524Z,55.02
2022-09-03T16:52:39.017Z,55.34
2022-09-03T16:55:07.143Z,55.60
2022-09-03T16:57:54.464Z,55.58
2022-09-03T17:00:21.946Z,55.65
2022-09-03T17:03:26.522Z,55.67
2022-09-03T17:06:06.281Z,55.83
2022-09-03T17:08:55.246Z,55.87
2022-09-03T17:11:34.508Z,56.17
2022-09-03T17:14:01.797Z,56.41
2022-09-03T17:16:29.035Z,56.25
2022-09-03T17:19:05.525Z,56.17
2022-09-03T17:21:39.217Z,56.48
2022-09-03T17:24:23.390Z,56.52
2022-09-03T17:27:05.971Z,56.23
2022-09-03T17:29:35.944Z,56.53
2022-09-03T17:32:15.141Z,56.36
2022-09-03T17:35:00.682Z,56.70
2022-09-03T17:37:30.874Z,57.31
2022-09-03T17:40:05.817Z,57.69
2022-09-03T17:42:59.134Z,57.51
2022-09-03T17:45:47.267Z,57.70
2022-09-03T17:48:14.471Z,57.80
2022-09-03T17:50:57.970Z,57.54
2022-09-03T17:53:32.342Z,57.42
2022-09-03T17:56:11.857Z,57.69
2022-09-03T17:58:41.458Z,57.67
2022-09-03T18:01:11.445Z,57.81
2022-09-03T18:03:41.435Z,58.22
2022-09-03T18:06:11.165Z,58.21
2022-09-03T18:08:44.209Z,58.09
2022-09-03T18:11:33.931Z,58.55
2022-09-03T18:14:20.089Z,58.57
2022-09-03T18:16:55.897Z,58.94
2022-09-03T18:19:31.832Z,58.92
2022-09-03T18:22:18.999Z,59.41
2022-09-03T18:25:14.512Z,59.95
2022-09-03T18:28:09.404Z,60.03
2022-09-03T18:30:55.269Z,60.21
2022-09-03T18:33:43.232Z,60.32
2022-09-03T18:36:29.657Z,60.74
2022-09-03T18:39:21.650Z,60.56
2022-09-03T18:42:16.454Z,60.81
2022-09-03T18:45:20.703Z,61.08
2022-09-03T18:48:16.487Z,60.92
2022-09-03T18:51:19.993Z,61.55
2022-09-03T18:54:08.863Z,61.55
2022-09-03T18:57:07.985Z,62.01
2022-09-03T19:00:05.984Z,61.79
2022-09-03T19:03:04.774Z,62.03
2022-09-03T19:05:50.378Z,62.16
2022-09-03T19:08:36.207Z,62.38
2022-09-03T19:11:29.391Z,62.53
2022-09-03T19:14:18.644Z,63.27
2022-09-03T19:17:07.545Z,63.54
2022-09-03T19:19:58.904Z,64.52
2022-09-03T19:22:55.899Z,63.55
2022-09-03T19:25:42.328Z,63.84
2022-09-03T19:28:38.396Z,64.05
2022-09-03T19:31:30.729Z,63.94
2022-09-03T19:34:22.562Z,64.50
2022-09-03T19:37:27.160Z,63.67
2022-09-03T19:40:19.244Z,65.12
2022-09-03T19:43:05.177Z,64.81
2022-09-03T19:45:57.152Z,65.62
2022-09-03T19:49:01.883Z,65.82
2022-09-03T19:51:55.209Z,64.89
2022-09-03T19:54:42.791Z,65.30
2022-09-03T19:57:30.625Z,65.69
2022-09-03T20:00:16.911Z,65.29
2022-09-03T20:03:16.841Z,65.49
2022-09-03T20:06:07.608Z,64.76
2022-09-03T20:08:56.589Z,65.15
2022-09-03T20:11:25.489Z,65.29
2022-09-03T20:14:14.305Z,65.69
2022-09-03T20:16:44.657Z,65.95
2022-09-03T20:19:29.990Z,66.58
2022-09-03T20:22:00.793Z,65.50
2022-09-03T20:24:47.212Z,65.53
2022-09-03T20:27:30.492Z,65.87
2022-09-03T20:30:00.508Z,66.39
2022-09-03T20:32:27.675Z,66.31
2022-09-03T20:34:57.645Z,66.63
2022-09-03T20:37:28.541Z,65.69
2022-09-03T20:40:02.087Z,64.92
2022-09-03T20:42:45.728Z,65.04
2022-09-03T20:45:18.979Z,65.75
2022-09-03T20:48:00.337Z,65.41
2022-09-03T20:50:27.676Z,65.06
2022-09-03T20:53:01.558Z,65.52
2022-09-03T20:55:37.971Z,65.46
2022-09-03T20:58:05.798Z,65.32
2022-09-03T21:00:49.289Z,65.44
2022-09-03T21:03:27.046Z,65.96
2022-09-03T21:06:03.780Z,65.60
2022-09-03T21:08:40.089Z,65.62
2022-09-03T21:11:14.528Z,65.55
2022-09-03T21:13:46.305Z,65.59
2022-09-03T21:16:32.332Z,66.54
2022-09-03T21:18:59.546Z,67.23
2022-09-03T21:22:05.440Z,67.59
2022-09-03T21:24:32.664Z,68.66
2022-09-03T21:27:03.727Z,68.45
2022-09-03T21:29:34.470Z,68.06
2022-09-03T21:32:18.614Z,67.92
2022-09-03T21:34:58.283Z,68.11
2022-09-03T21:37:25.496Z,68.06
2022-09-03T21:39:55.724Z,67.98
2022-09-03T21:42:49.085Z,68.13
2022-09-03T21:45:31.178Z,67.74
2022-09-03T21:48:15.592Z,67.49
2022-09-03T21:50:48.149Z,68.03
2022-09-03T21:53:21.138Z,68.61
2022-09-03T21:56:05.362Z,68.48
2022-09-03T21:58:49.643Z,68.43
2022-09-03T22:01:37.147Z,68.48
2022-09-03T22:04:04.545Z,68.27
2022-09-03T22:06:38.281Z,68.34
2022-09-03T22:09:11.821Z,68.00
2022-09-03T22:11:45.684Z,68.10
2022-09-03T22:14:15.028Z,68.20
2022-09-03T22:16:47.666Z,68.41
2022-09-03T22:19:15.095Z,68.38
2022-09-03T22:21:57.141Z,67.96
2022-09-03T22:24:33.329Z,67.10
2022-09-03T22:27:15.606Z,67.16
2022-09-03T22:29:49.202Z,67.41
2022-09-03T22:32:26.673Z,67.68
2022-09-03T22:35:08.255Z,67.78
2022-09-03T22:37:54.109Z,67.39
2022-09-03T22:40:40.018Z,67.18
2022-09-03T22:43:07.228Z,67.21
2022-09-03T22:45:54.445Z,67.38
2022-09-03T22:48:40.638Z,68.63
2022-09-03T22:51:09.208Z,68.86
2022-09-03T22:53:51.396Z,68.31
2022-09-03T22:56:22.245Z,67.80
2022-09-03T22:59:09.681Z,67.80
2022-09-03T23:01:41.467Z,68.29
2022-09-03T23:04:11.670Z,69.34
2022-09-03T23:06:48.626Z,71.03
2022-09-03T23:09:17.588Z,71.88
2022-09-03T23:11:51.394Z,70.82
2022-09-03T23:14:22.474Z,70.01
2022-09-03T23:17:04.382Z,69.94
2022-09-03T23:19:40.810Z,70.79
2022-09-03T23:22:13.274Z,71.23
2022-09-03T23:24:43.448Z,72.13
2022-09-03T23:27:14.934Z,71.74
2022-09-03T23:29:47.776Z,71.88
2022-09-03T23:32:15.275Z,72.86
2022-09-03T23:34:42.469Z,73.81
2022-09-03T23:37:35.360Z,74.61
2022-09-03T23:40:09.140Z,75.09
2022-09-03T23:42:54.965Z,74.86
2022-09-03T23:45:28.222Z,75.38
2022-09-03T23:48:14.652Z,75.11
2022-09-03T23:50:56.898Z,75.84
2022-09-03T23:53:30.076Z,76.10
2022-09-03T23:56:03.191Z,75.54
2022-09-03T23:58:36.661Z,74.77
